Time;durP1;ratioP1;P1;durP2;ratioP2;P2;SDS_P1;SDS_P2;PMS_P1;PMS_P2;Temp;Humidity;BMP_temperature;BMP_pressure;BME280_temperature;BME280_humidity;BME280_pressure;Samples;Min_cycle;Max_cycle;Signal;HPM_P1;HPM_P2
2021/12/26 00:01:17;;;;;;;2.63;1.53;;;;;;;;;;5051045;28;20219;-73
2021/12/26 00:03:46;;;;;;;2.00;1.63;;;;;;;;;;5051263;28;20801;-73
2021/12/26 00:06:16;;;;;;;1.97;1.53;;;;;;;;;;5050350;28;20237;-72
2021/12/26 00:08:44;;;;;;;2.20;1.70;;;;;;;;;;5051666;28;21170;-72
2021/12/26 00:11:11;;;;;;;2.50;1.50;;;;;;;;;;5051791;28;20230;-72
2021/12/26 00:13:37;;;;;;;1.67;1.57;;;;;;;;;;5051299;28;20214;-72
2021/12/26 00:16:05;;;;;;;1.53;1.43;;;;;;;;;;5051568;28;20839;-72
2021/12/26 00:18:33;;;;;;;1.50;1.30;;;;;;;;;;5052027;28;20206;-72
2021/12/26 00:21:01;;;;;;;2.57;1.60;;;;;;;;;;5050915;28;21075;-72
2021/12/26 00:23:27;;;;;;;1.60;1.50;;;;;;;;;;5050360;28;20268;-73
2021/12/26 00:25:55;;;;;;;2.63;1.53;;;;;;;;;;5051101;28;20233;-72
2021/12/26 00:28:22;;;;;;;1.37;1.27;;;;;;;;;;5049461;28;20229;-73
2021/12/26 00:30:48;;;;;;;1.73;1.50;;;;;;;;;;5052081;28;20514;-73
2021/12/26 00:33:15;;;;;;;2.00;1.50;;;;;;;;;;5051619;28;20225;-72
2021/12/26 00:35:42;;;;;;;1.57;1.43;;;;;;;;;;5051470;28;21205;-73
2021/12/26 00:38:10;;;;;;;2.10;1.80;;;;;;;;;;5048949;28;20445;-72
2021/12/26 00:40:37;;;;;;;2.23;1.70;;;;;;;;;;5051075;28;20307;-72
2021/12/26 00:43:03;;;;;;;1.63;1.53;;;;;;;;;;5050880;28;20225;-73
2021/12/26 00:45:30;;;;;;;2.30;1.60;;;;;;;;;;5050140;28;20214;-73
2021/12/26 00:47:56;;;;;;;2.70;1.63;;;;;;;;;;5049047;28;20234;-72
2021/12/26 00:50:26;;;;;;;1.77;1.67;;;;;;;;;;5049265;28;20445;-73
2021/12/26 00:52:53;;;;;;;1.50;1.40;;;;;;;;;;5048972;28;20478;-72
2021/12/26 00:55:21;;;;;;;1.67;1.57;;;;;;;;;;5048593;28;20710;-72
2021/12/26 00:57:48;;;;;;;1.90;1.60;;;;;;;;;;5048599;28;20569;-72
2021/12/26 01:00:19;;;;;;;3.17;1.93;;;;;;;;;;5049427;28;20426;-72
2021/12/26 01:02:46;;;;;;;1.77;1.67;;;;;;;;;;5051441;28;20272;-72
2021/12/26 01:05:14;;;;;;;2.17;1.50;;;;;;;;;;5051639;28;20448;-73
2021/12/26 01:07:52;;;;;;;1.73;1.57;;;;;;;;;;5053737;28;20210;-72
2021/12/26 01:10:22;;;;;;;1.50;1.40;;;;;;;;;;5055160;28;20233;-72
2021/12/26 01:12:50;;;;;;;3.40;1.80;;;;;;;;;;5055919;28;20213;-72
2021/12/26 01:15:18;;;;;;;1.60;1.50;;;;;;;;;;5053401;28;20211;-72
2021/12/26 01:17:45;;;;;;;2.30;1.57;;;;;;;;;;5054726;28;20247;-72
2021/12/26 01:20:25;;;;;;;1.93;1.70;;;;;;;;;;5055120;28;20210;-73
2021/12/26 01:22:51;;;;;;;2.70;1.53;;;;;;;;;;5054426;28;20263;-73
2021/12/26 01:25:18;;;;;;;1.60;1.47;;;;;;;;;;5053439;28;20316;-73
2021/12/26 01:27:45;;;;;;;2.13;1.70;;;;;;;;;;5058286;28;20838;-72
2021/12/26 01:30:13;;;;;;;1.93;1.30;;;;;;;;;;5053994;28;20230;-72
2021/12/26 01:32:39;;;;;;;1.87;1.67;;;;;;;;;;5054258;28;20479;-73
2021/12/26 01:35:06;;;;;;;1.47;1.37;;;;;;;;;;5054801;28;20209;-72
2021/12/26 01:37:33;;;;;;;1.53;1.43;;;;;;;;;;5054283;28;20248;-72
2021/12/26 01:39:59;;;;;;;5.10;1.70;;;;;;;;;;5053771;28;20279;-72
2021/12/26 01:42:26;;;;;;;2.07;1.73;;;;;;;;;;5055676;28;20366;-72
2021/12/26 01:44:54;;;;;;;2.83;2.03;;;;;;;;;;5054076;28;20300;-72
2021/12/26 01:47:21;;;;;;;2.03;1.83;;;;;;;;;;5053159;28;20238;-72
2021/12/26 01:49:48;;;;;;;2.20;1.53;;;;;;;;;;5053983;28;20238;-72
2021/12/26 01:52:14;;;;;;;2.10;1.67;;;;;;;;;;5054222;28;20229;-72
2021/12/26 01:54:46;;;;;;;1.87;1.47;;;;;;;;;;5051555;28;20302;-73
2021/12/26 01:57:15;;;;;;;2.87;1.70;;;;;;;;;;5055187;28;20895;-72
2021/12/26 01:59:43;;;;;;;3.50;1.80;;;;;;;;;;5053904;28;20207;-72
2021/12/26 02:02:11;;;;;;;1.80;1.50;;;;;;;;;;5052905;28;20218;-72
2021/12/26 02:04:39;;;;;;;2.13;1.80;;;;;;;;;;5055237;28;20463;-72
2021/12/26 02:07:07;;;;;;;2.17;1.60;;;;;;;;;;5054592;28;20210;-72
2021/12/26 02:09:34;;;;;;;1.40;1.30;;;;;;;;;;5052482;28;20229;-72
2021/12/26 02:12:00;;;;;;;1.50;1.40;;;;;;;;;;5053707;28;20214;-72
2021/12/26 02:14:27;;;;;;;3.03;1.90;;;;;;;;;;5054181;28;20643;-73
2021/12/26 02:16:54;;;;;;;1.80;1.57;;;;;;;;;;5053202;28;20260;-72
2021/12/26 02:19:22;;;;;;;2.97;1.87;;;;;;;;;;5052393;28;20581;-70
2021/12/26 02:22:05;;;;;;;3.47;1.83;;;;;;;;;;5053971;28;20271;-70
2021/12/26 02:24:44;;;;;;;1.83;1.60;;;;;;;;;;5053092;28;20333;-71
2021/12/26 02:27:31;;;;;;;1.87;1.63;;;;;;;;;;5053211;28;20260;-72
2021/12/26 02:29:58;;;;;;;1.67;1.57;;;;;;;;;;5054543;28;20234;-72
2021/12/26 02:32:25;;;;;;;1.70;1.60;;;;;;;;;;5053173;28;20794;-71
2021/12/26 02:34:51;;;;;;;2.03;1.83;;;;;;;;;;5051250;28;20818;-71
2021/12/26 02:37:19;;;;;;;2.13;1.93;;;;;;;;;;5053495;28;20210;-71
2021/12/26 02:39:45;;;;;;;2.37;1.70;;;;;;;;;;5055027;28;20226;-71
2021/12/26 02:42:12;;;;;;;1.77;1.67;;;;;;;;;;5053066;28;20453;-71
2021/12/26 02:44:38;;;;;;;1.70;1.60;;;;;;;;;;5053737;28;20656;-71
2021/12/26 02:47:05;;;;;;;2.23;2.03;;;;;;;;;;5054624;28;20234;-71
2021/12/26 02:49:32;;;;;;;3.10;1.77;;;;;;;;;;5050798;28;20276;-71
2021/12/26 02:51:58;;;;;;;2.20;1.87;;;;;;;;;;5054188;28;20210;-71
2021/12/26 02:54:26;;;;;;;1.70;1.57;;;;;;;;;;5052514;28;20210;-73
2021/12/26 02:56:53;;;;;;;1.90;1.50;;;;;;;;;;5051999;28;20210;-71
2021/12/26 02:59:20;;;;;;;1.50;1.30;;;;;;;;;;5052529;28;20214;-71
2021/12/26 03:01:46;;;;;;;3.83;1.83;;;;;;;;;;5052963;28;20225;-71
2021/12/26 03:04:13;;;;;;;1.60;1.50;;;;;;;;;;5052826;28;20723;-71
2021/12/26 03:06:46;;;;;;;1.50;1.40;;;;;;;;;;5054090;28;20665;-71
2021/12/26 03:09:13;;;;;;;1.90;1.80;;;;;;;;;;5054095;28;20218;-71
2021/12/26 03:11:44;;;;;;;2.20;1.60;;;;;;;;;;5051739;28;20245;-71
2021/12/26 03:14:10;;;;;;;1.97;1.50;;;;;;;;;;5054098;28;20290;-71
2021/12/26 03:16:37;;;;;;;3.13;1.83;;;;;;;;;;5053633;28;20229;-71
2021/12/26 03:19:03;;;;;;;2.73;1.90;;;;;;;;;;5052286;28;20207;-71
2021/12/26 03:21:33;;;;;;;1.80;1.50;;;;;;;;;;5052463;28;20559;-71
2021/12/26 03:23:59;;;;;;;1.80;1.70;;;;;;;;;;5053169;28;20276;-71
2021/12/26 03:26:26;;;;;;;4.50;1.63;;;;;;;;;;5050947;28;20223;-70
2021/12/26 03:28:53;;;;;;;3.30;2.10;;;;;;;;;;5050598;28;20222;-71
2021/12/26 03:31:20;;;;;;;1.93;1.70;;;;;;;;;;5052893;28;20221;-73
2021/12/26 03:33:47;;;;;;;2.43;1.40;;;;;;;;;;5051970;28;20509;-70
2021/12/26 03:36:13;;;;;;;1.80;1.50;;;;;;;;;;5051240;28;20241;-73
2021/12/26 03:38:40;;;;;;;2.67;1.93;;;;;;;;;;5054147;28;20570;-70
2021/12/26 03:41:06;;;;;;;2.60;1.90;;;;;;;;;;5050881;28;20223;-72
2021/12/26 03:43:33;;;;;;;2.00;1.90;;;;;;;;;;5051846;28;20214;-72
2021/12/26 03:46:01;;;;;;;9.43;2.30;;;;;;;;;;5052231;28;20221;-71
2021/12/26 03:48:28;;;;;;;1.97;1.87;;;;;;;;;;5052366;28;20214;-71
2021/12/26 03:50:58;;;;;;;2.07;1.90;;;;;;;;;;5050410;28;20691;-71
2021/12/26 03:53:25;;;;;;;2.00;1.87;;;;;;;;;;5052607;28;21130;-72
2021/12/26 03:55:52;;;;;;;2.73;2.13;;;;;;;;;;5052665;28;20280;-72
2021/12/26 03:58:18;;;;;;;2.13;1.93;;;;;;;;;;5050376;28;20206;-70
2021/12/26 04:00:48;;;;;;;2.30;1.83;;;;;;;;;;5052632;28;20226;-72
2021/12/26 04:03:16;;;;;;;1.97;1.80;;;;;;;;;;5052698;28;20210;-71
2021/12/26 04:05:42;;;;;;;2.60;2.40;;;;;;;;;;5051276;28;20214;-71
2021/12/26 04:08:09;;;;;;;2.73;1.97;;;;;;;;;;5052228;28;20255;-71
2021/12/26 04:10:35;;;;;;;2.97;2.20;;;;;;;;;;5052042;28;20279;-74
2021/12/26 04:13:02;;;;;;;2.23;2.03;;;;;;;;;;5050783;28;20264;-71
2021/12/26 04:15:28;;;;;;;2.80;2.17;;;;;;;;;;5052643;28;20206;-71
2021/12/26 04:17:57;;;;;;;2.97;2.03;;;;;;;;;;5051720;28;21128;-70
2021/12/26 04:20:25;;;;;;;2.63;2.30;;;;;;;;;;5050950;28;20214;-70
2021/12/26 04:22:52;;;;;;;2.53;2.10;;;;;;;;;;5051521;28;20237;-71
2021/12/26 04:25:19;;;;;;;1.90;1.80;;;;;;;;;;5051652;28;20288;-71
2021/12/26 04:27:46;;;;;;;2.57;2.20;;;;;;;;;;5051379;28;20214;-71
2021/12/26 04:30:14;;;;;;;3.93;2.10;;;;;;;;;;5051767;28;20249;-72
2021/12/26 04:32:41;;;;;;;2.37;2.00;;;;;;;;;;5052326;28;20261;-71
2021/12/26 04:35:08;;;;;;;2.20;2.00;;;;;;;;;;5049406;28;20734;-71
2021/12/26 04:37:36;;;;;;;3.47;2.20;;;;;;;;;;5051493;28;20248;-71
2021/12/26 04:40:04;;;;;;;2.40;2.00;;;;;;;;;;5053762;28;20214;-71
2021/12/26 04:42:30;;;;;;;2.20;2.00;;;;;;;;;;5055559;28;20248;-71
2021/12/26 04:44:57;;;;;;;2.23;2.03;;;;;;;;;;5056988;28;20218;-71
2021/12/26 04:47:23;;;;;;;2.63;2.43;;;;;;;;;;5055770;28;20230;-71
2021/12/26 04:49:49;;;;;;;2.77;2.20;;;;;;;;;;5053845;28;20739;-71
2021/12/26 04:52:16;;;;;;;2.53;2.33;;;;;;;;;;5056360;28;20299;-71
2021/12/26 04:54:44;;;;;;;2.60;2.40;;;;;;;;;;5057517;28;20643;-71
2021/12/26 04:57:10;;;;;;;2.03;1.87;;;;;;;;;;5054278;28;20210;-71
2021/12/26 04:59:37;;;;;;;2.90;1.80;;;;;;;;;;5056110;28;20259;-71
2021/12/26 05:02:03;;;;;;;2.83;1.97;;;;;;;;;;5055592;28;20315;-71
2021/12/26 05:04:30;;;;;;;2.00;1.90;;;;;;;;;;5054637;28;21133;-71
2021/12/26 05:06:56;;;;;;;2.33;2.03;;;;;;;;;;5054638;28;20553;-71
2021/12/26 05:09:23;;;;;;;3.00;2.20;;;;;;;;;;5056049;28;20311;-71
2021/12/26 05:11:50;;;;;;;2.57;2.37;;;;;;;;;;5054044;28;20790;-71
2021/12/26 05:14:18;;;;;;;2.40;2.20;;;;;;;;;;5055794;28;20222;-71
2021/12/26 05:16:45;;;;;;;3.17;2.10;;;;;;;;;;5055949;28;20223;-71
2021/12/26 05:19:11;;;;;;;2.63;1.87;;;;;;;;;;5056348;28;20213;-70
2021/12/26 05:21:38;;;;;;;2.30;2.10;;;;;;;;;;5054999;28;20288;-71
2021/12/26 05:24:05;;;;;;;3.13;2.10;;;;;;;;;;5054248;28;20226;-71
2021/12/26 05:26:31;;;;;;;2.60;2.40;;;;;;;;;;5056881;28;20231;-71
2021/12/26 05:28:59;;;;;;;2.07;1.63;;;;;;;;;;5052351;28;20649;-71
2021/12/26 05:31:25;;;;;;;2.28;2.05;;;;;;;;;;5055053;28;20848;-73
2021/12/26 05:33:52;;;;;;;3.03;2.60;;;;;;;;;;5054440;28;20256;-73
2021/12/26 05:36:19;;;;;;;2.80;2.30;;;;;;;;;;5052398;28;20260;-74
2021/12/26 05:38:45;;;;;;;3.20;2.70;;;;;;;;;;5054723;28;20211;-74
2021/12/26 05:41:12;;;;;;;2.67;2.40;;;;;;;;;;5054826;28;20234;-74
2021/12/26 05:43:39;;;;;;;4.10;2.30;;;;;;;;;;5054874;28;20229;-74
2021/12/26 05:46:06;;;;;;;2.60;2.40;;;;;;;;;;5055265;28;20231;-74
2021/12/26 05:48:34;;;;;;;2.30;2.10;;;;;;;;;;5055592;28;20221;-74
2021/12/26 05:51:00;;;;;;;2.47;2.17;;;;;;;;;;5053993;28;20696;-74
2021/12/26 05:53:27;;;;;;;2.60;2.03;;;;;;;;;;5056432;28;20214;-74
2021/12/26 05:55:53;;;;;;;2.73;2.30;;;;;;;;;;5054492;28;20303;-74
2021/12/26 05:58:20;;;;;;;2.73;2.40;;;;;;;;;;5053556;28;20214;-74
2021/12/26 06:00:46;;;;;;;3.37;2.00;;;;;;;;;;5055131;28;20221;-74
2021/12/26 06:03:17;;;;;;;2.07;1.87;;;;;;;;;;5053480;28;20218;-74
2021/12/26 06:05:43;;;;;;;2.53;2.33;;;;;;;;;;5052952;28;20267;-74
2021/12/26 06:08:10;;;;;;;2.07;1.87;;;;;;;;;;5053434;28;20206;-74
2021/12/26 06:10:36;;;;;;;2.07;1.87;;;;;;;;;;5054128;28;20237;-73
2021/12/26 06:13:03;;;;;;;5.87;2.23;;;;;;;;;;5053447;28;20292;-74
2021/12/26 06:15:29;;;;;;;2.30;2.10;;;;;;;;;;5053732;28;20268;-74
2021/12/26 06:17:56;;;;;;;2.50;2.30;;;;;;;;;;5056180;28;20210;-74
2021/12/26 06:20:24;;;;;;;2.30;2.10;;;;;;;;;;5050200;28;20457;-74
2021/12/26 06:22:50;;;;;;;2.33;2.13;;;;;;;;;;5052255;28;21180;-74
2021/12/26 06:25:17;;;;;;;5.07;2.37;;;;;;;;;;5054089;28;20249;-74
2021/12/26 06:27:44;;;;;;;2.30;2.10;;;;;;;;;;5052801;28;20259;-74
2021/12/26 06:30:11;;;;;;;2.83;2.17;;;;;;;;;;5052310;28;20276;-74
2021/12/26 06:32:39;;;;;;;2.60;2.40;;;;;;;;;;5052603;28;20237;-74
2021/12/26 06:35:08;;;;;;;1.90;1.80;;;;;;;;;;5052027;28;20248;-73
2021/12/26 06:37:37;;;;;;;2.07;1.83;;;;;;;;;;5053061;28;20214;-74
2021/12/26 06:40:04;;;;;;;2.30;2.07;;;;;;;;;;5054492;28;20506;-74
2021/12/26 06:42:32;;;;;;;2.80;2.43;;;;;;;;;;5052778;28;20689;-74
2021/12/26 06:44:58;;;;;;;2.53;2.33;;;;;;;;;;5053345;28;20732;-74
2021/12/26 06:47:25;;;;;;;3.00;2.50;;;;;;;;;;5053986;28;20237;-74
2021/12/26 06:49:52;;;;;;;3.03;2.30;;;;;;;;;;5053439;28;20242;-74
2021/12/26 06:52:19;;;;;;;2.20;2.00;;;;;;;;;;5051431;28;20211;-74
2021/12/26 06:54:47;;;;;;;2.47;2.27;;;;;;;;;;5053793;28;20232;-74
2021/12/26 06:57:13;;;;;;;3.10;2.17;;;;;;;;;;5053276;28;20614;-74
2021/12/26 06:59:40;;;;;;;2.27;2.17;;;;;;;;;;5052223;28;20252;-74
2021/12/26 07:02:06;;;;;;;4.83;2.83;;;;;;;;;;5052156;28;20643;-73
2021/12/26 07:04:33;;;;;;;3.63;2.63;;;;;;;;;;5050420;28;20933;-74
2021/12/26 07:06:59;;;;;;;2.47;2.10;;;;;;;;;;5051714;28;20213;-74
2021/12/26 07:09:26;;;;;;;2.33;2.13;;;;;;;;;;5049917;28;20199;-74
2021/12/26 07:11:54;;;;;;;3.73;2.83;;;;;;;;;;5049462;28;20650;-74
2021/12/26 07:14:20;;;;;;;2.50;2.30;;;;;;;;;;5050759;28;21537;-74
2021/12/26 07:16:47;;;;;;;3.60;2.23;;;;;;;;;;5048713;28;21135;-74
2021/12/26 07:19:13;;;;;;;2.50;2.30;;;;;;;;;;5026744;28;20241;-75
2021/12/26 07:21:40;;;;;;;2.57;2.37;;;;;;;;;;5049275;28;20214;-75
2021/12/26 07:24:07;;;;;;;4.97;2.40;;;;;;;;;;5049597;28;20238;-75
2021/12/26 07:26:34;;;;;;;2.60;2.40;;;;;;;;;;5051414;28;20241;-75
2021/12/26 07:29:02;;;;;;;2.30;2.10;;;;;;;;;;5050071;28;20682;-74
2021/12/26 07:31:28;;;;;;;2.60;2.40;;;;;;;;;;5051549;28;21195;-75
2021/12/26 07:33:55;;;;;;;2.90;2.70;;;;;;;;;;5049291;28;20213;-75
2021/12/26 07:36:21;;;;;;;4.67;2.80;;;;;;;;;;5047245;28;20626;-74
2021/12/26 07:38:48;;;;;;;2.63;2.43;;;;;;;;;;5050377;28;20711;-74
2021/12/26 07:41:14;;;;;;;2.97;2.50;;;;;;;;;;5047805;28;20230;-74
2021/12/26 07:43:41;;;;;;;3.03;2.33;;;;;;;;;;5049691;28;20209;-76
2021/12/26 07:46:09;;;;;;;2.80;2.57;;;;;;;;;;5049077;28;20210;-76
2021/12/26 07:48:35;;;;;;;3.33;3.03;;;;;;;;;;5048951;28;20259;-76
2021/12/26 07:51:04;;;;;;;2.83;2.53;;;;;;;;;;5051578;28;20302;-76
2021/12/26 07:53:32;;;;;;;4.23;3.47;;;;;;;;;;5047994;28;20238;-76
2021/12/26 07:55:59;;;;;;;3.20;2.80;;;;;;;;;;5049502;28;20328;-75
2021/12/26 07:58:25;;;;;;;2.53;2.33;;;;;;;;;;5049339;28;20214;-75
2021/12/26 08:00:52;;;;;;;2.80;2.60;;;;;;;;;;5049653;28;20210;-75
2021/12/26 08:03:20;;;;;;;3.13;2.50;;;;;;;;;;5048807;28;20226;-75
2021/12/26 08:05:46;;;;;;;2.80;2.60;;;;;;;;;;5049656;28;20517;-75
2021/12/26 08:08:13;;;;;;;3.37;2.50;;;;;;;;;;5051190;28;20680;-77
2021/12/26 08:10:39;;;;;;;4.33;2.67;;;;;;;;;;5048203;28;20496;-75
2021/12/26 08:13:06;;;;;;;2.90;2.60;;;;;;;;;;5050040;28;20209;-75
2021/12/26 08:15:32;;;;;;;2.83;2.53;;;;;;;;;;5051076;28;20218;-75
2021/12/26 08:17:59;;;;;;;2.77;2.57;;;;;;;;;;5051023;28;20630;-76
2021/12/26 08:20:26;;;;;;;3.20;2.90;;;;;;;;;;5050107;28;20210;-74
2021/12/26 08:22:53;;;;;;;2.90;2.60;;;;;;;;;;5049079;28;20572;-76
2021/12/26 08:25:21;;;;;;;2.70;2.50;;;;;;;;;;5050211;28;20465;-75
2021/12/26 08:27:47;;;;;;;2.77;2.57;;;;;;;;;;5049315;28;20226;-75
2021/12/26 08:30:14;;;;;;;2.87;2.67;;;;;;;;;;5050244;28;20247;-75
2021/12/26 08:32:43;;;;;;;3.97;2.83;;;;;;;;;;5051152;28;20273;-74
2021/12/26 08:35:09;;;;;;;2.57;2.37;;;;;;;;;;5048225;28;20297;-75
2021/12/26 08:37:40;;;;;;;6.83;2.60;;;;;;;;;;5048670;28;20586;-75
2021/12/26 08:40:07;;;;;;;4.93;3.53;;;;;;;;;;5050612;28;20245;-76
2021/12/26 08:42:34;;;;;;;3.33;2.90;;;;;;;;;;5050747;28;20668;-75
2021/12/26 08:45:01;;;;;;;3.53;2.93;;;;;;;;;;5051356;28;20623;-75
2021/12/26 08:47:28;;;;;;;2.77;2.53;;;;;;;;;;5049501;28;20978;-75
2021/12/26 08:49:54;;;;;;;3.93;2.90;;;;;;;;;;5052858;28;20667;-76
2021/12/26 08:52:21;;;;;;;2.63;2.33;;;;;;;;;;5049024;28;20676;-76
2021/12/26 08:54:49;;;;;;;2.80;2.40;;;;;;;;;;5051521;28;20225;-75
2021/12/26 08:57:16;;;;;;;2.77;2.57;;;;;;;;;;5049190;28;20294;-75
2021/12/26 08:59:43;;;;;;;3.57;2.60;;;;;;;;;;5050968;28;20550;-76
2021/12/26 09:02:10;;;;;;;4.97;2.80;;;;;;;;;;5049553;28;20283;-76
2021/12/26 09:04:37;;;;;;;3.63;3.27;;;;;;;;;;5049353;28;20247;-76
2021/12/26 09:07:05;;;;;;;2.53;2.30;;;;;;;;;;5050437;28;20203;-76
2021/12/26 09:09:32;;;;;;;3.80;2.40;;;;;;;;;;5045934;28;21226;-76
2021/12/26 09:12:00;;;;;;;2.60;2.40;;;;;;;;;;5045793;28;20230;-76
2021/12/26 09:14:28;;;;;;;2.77;2.57;;;;;;;;;;5045653;28;20213;-76
2021/12/26 09:16:55;;;;;;;3.30;3.00;;;;;;;;;;5045566;28;20226;-76
2021/12/26 09:19:23;;;;;;;4.07;3.10;;;;;;;;;;5044939;28;20215;-76
2021/12/26 09:21:50;;;;;;;5.90;3.07;;;;;;;;;;5044170;28;20590;-76
2021/12/26 09:24:16;;;;;;;3.50;2.87;;;;;;;;;;5042910;28;20234;-76
2021/12/26 09:26:43;;;;;;;3.57;2.80;;;;;;;;;;5044972;28;20738;-76
2021/12/26 09:29:10;;;;;;;3.40;3.10;;;;;;;;;;5022286;28;20214;-76
2021/12/26 09:31:37;;;;;;;3.27;2.97;;;;;;;;;;5048466;28;20241;-76
2021/12/26 09:34:03;;;;;;;3.57;2.97;;;;;;;;;;5041089;28;20471;-76
2021/12/26 09:36:30;;;;;;;3.37;2.93;;;;;;;;;;5041048;28;20276;-76
2021/12/26 09:38:56;;;;;;;3.63;2.77;;;;;;;;;;5041256;28;20210;-76
2021/12/26 09:41:23;;;;;;;2.80;2.60;;;;;;;;;;5040525;28;20226;-76
2021/12/26 09:43:49;;;;;;;2.90;2.60;;;;;;;;;;5043709;28;20303;-76
2021/12/26 09:46:17;;;;;;;3.00;2.70;;;;;;;;;;5041222;28;20230;-76
2021/12/26 09:48:43;;;;;;;3.87;3.47;;;;;;;;;;5044239;28;20211;-76
2021/12/26 09:51:10;;;;;;;3.37;3.07;;;;;;;;;;5044656;28;20237;-76
2021/12/26 09:53:38;;;;;;;3.17;2.87;;;;;;;;;;5046563;28;20230;-76
2021/12/26 09:56:07;;;;;;;3.30;3.00;;;;;;;;;;5047054;28;20228;-76
2021/12/26 09:58:34;;;;;;;3.77;3.43;;;;;;;;;;5047527;28;20214;-76
2021/12/26 10:01:00;;;;;;;3.20;2.90;;;;;;;;;;5053630;28;20634;-77
2021/12/26 10:03:33;;;;;;;3.13;2.93;;;;;;;;;;5050281;28;20363;-77
2021/12/26 10:06:06;;;;;;;3.37;3.07;;;;;;;;;;5053405;28;20670;-76
2021/12/26 10:08:34;;;;;;;3.67;2.80;;;;;;;;;;5052650;28;20221;-77
2021/12/26 10:11:11;;;;;;;4.43;4.03;;;;;;;;;;5052448;28;20240;-77
2021/12/26 10:13:40;;;;;;;3.37;3.07;;;;;;;;;;5053125;28;20256;-76
2021/12/26 10:16:07;;;;;;;4.70;3.47;;;;;;;;;;5052839;28;20733;-77
2021/12/26 10:18:39;;;;;;;4.73;4.23;;;;;;;;;;5052009;28;20557;-77
2021/12/26 10:21:38;;;;;;;3.70;3.40;;;;;;;;;;5051417;28;20207;-77
2021/12/26 10:24:11;;;;;;;4.10;3.80;;;;;;;;;;5050677;28;20288;-77
2021/12/26 10:26:43;;;;;;;4.30;3.90;;;;;;;;;;5053176;28;20250;-77
2021/12/26 10:29:13;;;;;;;4.33;3.77;;;;;;;;;;5051564;28;20226;-77
2021/12/26 10:31:45;;;;;;;4.17;3.77;;;;;;;;;;5051142;28;20239;-77
2021/12/26 10:34:19;;;;;;;4.23;3.83;;;;;;;;;;5052002;28;20198;-77
2021/12/26 10:36:48;;;;;;;4.07;3.70;;;;;;;;;;5051024;28;20216;-77
2021/12/26 10:39:18;;;;;;;4.33;4.00;;;;;;;;;;5052781;28;20214;-77
2021/12/26 10:41:47;;;;;;;4.53;4.13;;;;;;;;;;5051926;28;20251;-77
2021/12/26 10:44:25;;;;;;;4.80;3.63;;;;;;;;;;5052083;28;20221;-77
2021/12/26 10:46:56;;;;;;;4.43;4.03;;;;;;;;;;5053945;28;20237;-77
2021/12/26 10:49:26;;;;;;;4.57;4.07;;;;;;;;;;5050201;28;20724;-77
2021/12/26 10:51:52;;;;;;;4.13;3.80;;;;;;;;;;5052158;28;21173;-77
2021/12/26 10:54:21;;;;;;;4.50;4.07;;;;;;;;;;5050127;28;20214;-77
2021/12/26 10:57:13;;;;;;;4.93;4.53;;;;;;;;;;5052925;28;20250;-77
2021/12/26 10:59:44;;;;;;;4.80;3.70;;;;;;;;;;5051350;28;20209;-77
2021/12/26 11:02:11;;;;;;;3.87;3.57;;;;;;;;;;5051909;28;20259;-77
2021/12/26 11:04:55;;;;;;;4.30;3.90;;;;;;;;;;5052644;28;20224;-77
2021/12/26 11:07:21;;;;;;;4.17;3.77;;;;;;;;;;5050344;28;20240;-76
2021/12/26 11:10:01;;;;;;;4.40;4.00;;;;;;;;;;5053311;28;20240;-79
2021/12/26 11:12:37;;;;;;;4.33;3.93;;;;;;;;;;5050972;28;20223;-77
2021/12/26 11:15:05;;;;;;;4.50;4.07;;;;;;;;;;5049984;28;20218;-77
2021/12/26 11:17:33;;;;;;;4.70;4.30;;;;;;;;;;5050925;28;20237;-77
2021/12/26 11:20:01;;;;;;;4.37;4.07;;;;;;;;;;5048893;28;20768;-77
2021/12/26 11:22:28;;;;;;;9.47;5.00;;;;;;;;;;5051871;28;20637;-78
2021/12/26 11:24:57;;;;;;;5.70;4.57;;;;;;;;;;5050677;28;20238;-77
2021/12/26 11:27:23;;;;;;;4.90;4.50;;;;;;;;;;5051431;28;20221;-78
2021/12/26 11:29:50;;;;;;;4.70;4.30;;;;;;;;;;5053457;28;20213;-78
2021/12/26 11:32:17;;;;;;;4.70;4.40;;;;;;;;;;5051982;28;20237;-78
2021/12/26 11:34:46;;;;;;;5.17;4.40;;;;;;;;;;5053680;28;20652;-78
2021/12/26 11:37:14;;;;;;;4.87;4.27;;;;;;;;;;5050355;28;20206;-79
2021/12/26 11:39:43;;;;;;;4.70;4.30;;;;;;;;;;5053940;28;20241;-78
2021/12/26 11:42:43;;;;;;;4.43;4.03;;;;;;;;;;5051844;28;20296;-78
2021/12/26 11:45:20;;;;;;;4.83;4.43;;;;;;;;;;5051034;28;20221;-78
2021/12/26 11:48:20;;;;;;;6.50;5.30;;;;;;;;;;5052924;28;20230;-78
2021/12/26 11:51:07;;;;;;;7.00;4.67;;;;;;;;;;5051578;28;20205;-78
2021/12/26 11:54:02;;;;;;;5.00;4.57;;;;;;;;;;5050438;28;20673;-79
2021/12/26 11:56:36;;;;;;;5.47;4.90;;;;;;;;;;5051450;28;20713;-78
2021/12/26 11:59:16;;;;;;;10.13;5.47;;;;;;;;;;5052564;28;20284;-78
2021/12/26 12:01:47;;;;;;;6.33;5.73;;;;;;;;;;5049365;28;20710;-76
2021/12/26 12:04:17;;;;;;;7.10;4.90;;;;;;;;;;5050626;28;20206;-78
2021/12/26 12:06:45;;;;;;;5.90;5.30;;;;;;;;;;5051267;28;20237;-78
2021/12/26 12:09:30;;;;;;;6.00;5.43;;;;;;;;;;5049197;28;20198;-76
2021/12/26 12:12:09;;;;;;;6.07;5.63;;;;;;;;;;5051270;28;21125;-78
2021/12/26 12:14:50;;;;;;;5.80;5.30;;;;;;;;;;5051920;28;20210;-76
2021/12/26 12:17:19;;;;;;;6.00;5.50;;;;;;;;;;5048729;28;20245;-75
2021/12/26 12:20:11;;;;;;;6.40;5.77;;;;;;;;;;5053243;28;20244;-76
2021/12/26 12:22:39;;;;;;;5.50;5.10;;;;;;;;;;5051022;28;20242;-76
2021/12/26 12:25:41;;;;;;;5.90;5.43;;;;;;;;;;5050852;28;20218;-76
2021/12/26 12:28:09;;;;;;;5.50;5.10;;;;;;;;;;5051895;28;20206;-76
2021/12/26 12:30:37;;;;;;;5.50;5.10;;;;;;;;;;5050489;28;20213;-76
2021/12/26 12:33:21;;;;;;;6.30;5.80;;;;;;;;;;5051273;28;20718;-76
2021/12/26 12:35:56;;;;;;;6.00;5.50;;;;;;;;;;5050266;28;20202;-76
2021/12/26 12:38:27;;;;;;;5.10;4.70;;;;;;;;;;5051420;28;20216;-76
2021/12/26 12:40:57;;;;;;;6.53;5.80;;;;;;;;;;5052088;28;20716;-76
2021/12/26 12:43:25;;;;;;;6.27;5.77;;;;;;;;;;5050826;28;21124;-76
2021/12/26 12:46:04;;;;;;;6.67;5.97;;;;;;;;;;5049247;28;20660;-76
2021/12/26 12:48:33;;;;;;;6.63;6.13;;;;;;;;;;5051320;28;20317;-76
2021/12/26 12:51:03;;;;;;;6.47;5.97;;;;;;;;;;5053203;28;20651;-75
2021/12/26 12:53:38;;;;;;;5.63;5.20;;;;;;;;;;5049708;28;20234;-76
2021/12/26 12:56:06;;;;;;;5.80;5.30;;;;;;;;;;5050431;28;20322;-75
2021/12/26 12:58:36;;;;;;;5.60;5.10;;;;;;;;;;5050236;28;20268;-76
2021/12/26 13:01:05;;;;;;;6.00;5.50;;;;;;;;;;5052068;28;20234;-76
2021/12/26 13:03:34;;;;;;;7.73;5.60;;;;;;;;;;5054024;28;20214;-76
2021/12/26 13:06:07;;;;;;;7.03;6.03;;;;;;;;;;5052294;28;20221;-76
2021/12/26 13:08:34;;;;;;;7.50;6.80;;;;;;;;;;5053903;28;20214;-76
2021/12/26 13:11:01;;;;;;;6.37;5.80;;;;;;;;;;5052656;28;20691;-76
2021/12/26 13:13:30;;;;;;;5.97;5.47;;;;;;;;;;5052026;28;20231;-76
2021/12/26 13:15:59;;;;;;;6.30;5.80;;;;;;;;;;5055298;28;20263;-77
2021/12/26 13:18:28;;;;;;;6.77;5.77;;;;;;;;;;5051952;28;20232;-76
2021/12/26 13:20:56;;;;;;;6.87;5.90;;;;;;;;;;5054815;28;20212;-76
2021/12/26 13:23:24;;;;;;;7.03;6.43;;;;;;;;;;5051997;28;20292;-77
2021/12/26 13:25:52;;;;;;;7.27;6.40;;;;;;;;;;5052655;28;20698;-76
2021/12/26 13:28:26;;;;;;;6.03;5.53;;;;;;;;;;5052918;28;20225;-76
2021/12/26 13:30:56;;;;;;;6.60;5.90;;;;;;;;;;5051758;28;20313;-77
2021/12/26 13:33:25;;;;;;;6.30;5.70;;;;;;;;;;5052360;28;20234;-77
2021/12/26 13:35:52;;;;;;;6.57;5.97;;;;;;;;;;5052073;28;20324;-78
2021/12/26 13:38:19;;;;;;;6.73;6.10;;;;;;;;;;5053029;28;20654;-76
2021/12/26 13:40:48;;;;;;;8.23;5.10;;;;;;;;;;5053714;28;20275;-77
2021/12/26 13:43:25;;;;;;;6.90;6.30;;;;;;;;;;5051324;28;20222;-77
2021/12/26 13:45:55;;;;;;;8.53;5.37;;;;;;;;;;5054310;28;20206;-77
2021/12/26 13:48:30;;;;;;;7.30;6.40;;;;;;;;;;5053230;28;20229;-77
2021/12/26 13:50:57;;;;;;;7.20;6.50;;;;;;;;;;5053156;28;20224;-77
2021/12/26 13:53:24;;;;;;;7.83;6.80;;;;;;;;;;5053939;28;20227;-77
2021/12/26 13:55:54;;;;;;;7.17;6.37;;;;;;;;;;5051580;28;20485;-77
2021/12/26 13:58:26;;;;;;;6.97;6.27;;;;;;;;;;5053842;28;20217;-77
2021/12/26 14:00:55;;;;;;;8.27;6.53;;;;;;;;;;5052443;28;20705;-77
2021/12/26 14:03:22;;;;;;;5.93;5.40;;;;;;;;;;5053156;28;20333;-77
2021/12/26 14:05:49;;;;;;;6.97;6.30;;;;;;;;;;5055872;28;20264;-77
2021/12/26 14:08:17;;;;;;;8.70;6.97;;;;;;;;;;5050488;28;20301;-77
2021/12/26 14:10:45;;;;;;;6.87;6.27;;;;;;;;;;5054109;28;21081;-77
2021/12/26 14:13:17;;;;;;;6.80;5.50;;;;;;;;;;5052116;28;20235;-77
2021/12/26 14:15:49;;;;;;;7.37;6.53;;;;;;;;;;5052949;28;20366;-77
2021/12/26 14:18:20;;;;;;;7.70;6.93;;;;;;;;;;5052984;28;20691;-77
2021/12/26 14:20:50;;;;;;;7.77;7.00;;;;;;;;;;5051013;28;20242;-77
2021/12/26 14:23:19;;;;;;;9.03;6.83;;;;;;;;;;5052978;28;20234;-77
2021/12/26 14:25:46;;;;;;;7.73;6.97;;;;;;;;;;5050893;28;20737;-77
2021/12/26 14:28:14;;;;;;;6.20;5.70;;;;;;;;;;5051738;28;20209;-77
2021/12/26 14:30:44;;;;;;;7.00;6.40;;;;;;;;;;5053562;28;20211;-77
2021/12/26 14:33:13;;;;;;;7.47;6.03;;;;;;;;;;5050666;28;20280;-77
2021/12/26 14:35:43;;;;;;;6.83;6.13;;;;;;;;;;5054553;28;20626;-77
2021/12/26 14:38:12;;;;;;;7.00;6.30;;;;;;;;;;5051980;28;20243;-77
2021/12/26 14:40:50;;;;;;;7.10;6.40;;;;;;;;;;5052545;28;20225;-77
2021/12/26 14:43:17;;;;;;;7.17;6.47;;;;;;;;;;5052774;28;20845;-77
2021/12/26 14:45:53;;;;;;;7.07;6.37;;;;;;;;;;5052047;28;20638;-77
2021/12/26 14:48:32;;;;;;;7.57;6.87;;;;;;;;;;5053928;28;20318;-77
2021/12/26 14:51:14;;;;;;;8.00;7.27;;;;;;;;;;5051691;28;20213;-77
2021/12/26 14:53:41;;;;;;;7.00;6.33;;;;;;;;;;5051227;28;20222;-77